sensor_id;sensor_type;location;lat;lon;timestamp;pressure;altitude;pressure_sealevel;temperature;humidity
56052;BME280;41919;42.648;23.384;2022-11-15T00:02:04;95167.75;;;4.27;98.52
56052;BME280;41919;42.648;23.384;2022-11-15T00:04:30;95167.47;;;4.30;98.37
56052;BME280;41919;42.648;23.384;2022-11-15T00:06:55;95158.44;;;4.35;97.84
56052;BME280;41919;42.648;23.384;2022-11-15T00:09:20;95166.66;;;4.30;97.41
56052;BME280;41919;42.648;23.384;2022-11-15T00:11:45;95171.38;;;4.35;97.05
56052;BME280;41919;42.648;23.384;2022-11-15T00:14:11;95170.34;;;4.27;97.09
56052;BME280;41919;42.648;23.384;2022-11-15T00:16:36;95170.59;;;4.16;97.17
56052;BME280;41919;42.648;23.384;2022-11-15T00:19:02;95159.06;;;4.10;96.77
56052;BME280;41919;42.648;23.384;2022-11-15T00:21:27;95160.53;;;4.13;96.18
56052;BME280;41919;42.648;23.384;2022-11-15T00:23:52;95163.13;;;4.13;95.28
56052;BME280;41919;42.648;23.384;2022-11-15T00:26:18;95160.97;;;4.08;94.58
56052;BME280;41919;42.648;23.384;2022-11-15T00:28:43;95153.06;;;4.10;94.83
56052;BME280;41919;42.648;23.384;2022-11-15T00:31:10;95157.34;;;4.19;94.41
56052;BME280;41919;42.648;23.384;2022-11-15T00:33:36;95157.78;;;4.32;93.46
56052;BME280;41919;42.648;23.384;2022-11-15T00:36:07;95155.13;;;4.50;92.15
56052;BME280;41919;42.648;23.384;2022-11-15T00:38:34;95143.38;;;4.56;90.90
56052;BME280;41919;42.648;23.384;2022-11-15T00:41:00;95147.53;;;4.75;89.98
56052;BME280;41919;42.648;23.384;2022-11-15T00:43:26;95145.34;;;4.88;89.02
56052;BME280;41919;42.648;23.384;2022-11-15T00:45:52;95092.19;;;4.68;87.72
56052;BME280;41919;42.648;23.384;2022-11-15T00:48:17;95142.22;;;5.11;87.36
56052;BME280;41919;42.648;23.384;2022-11-15T00:50:42;95143.75;;;5.22;86.25
56052;BME280;41919;42.648;23.384;2022-11-15T00:53:08;95141.16;;;5.30;86.04
56052;BME280;41919;42.648;23.384;2022-11-15T00:55:33;95144.13;;;5.35;86.19
56052;BME280;41919;42.648;23.384;2022-11-15T00:57:58;95149.56;;;5.24;85.85
56052;BME280;41919;42.648;23.384;2022-11-15T01:00:23;95140.59;;;5.10;87.03
56052;BME280;41919;42.648;23.384;2022-11-15T01:02:49;95132.50;;;5.13;87.55
56052;BME280;41919;42.648;23.384;2022-11-15T01:05:14;95134.97;;;5.15;86.97
56052;BME280;41919;42.648;23.384;2022-11-15T01:07:39;95134.88;;;4.98;86.64
56052;BME280;41919;42.648;23.384;2022-11-15T01:10:05;95130.28;;;4.84;87.11
56052;BME280;41919;42.648;23.384;2022-11-15T01:12:30;95128.25;;;4.69;87.35
56052;BME280;41919;42.648;23.384;2022-11-15T01:14:56;95135.88;;;4.71;87.37
56052;BME280;41919;42.648;23.384;2022-11-15T01:17:21;95128.97;;;4.80;87.36
56052;BME280;41919;42.648;23.384;2022-11-15T01:19:46;95136.47;;;4.91;86.65
56052;BME280;41919;42.648;23.384;2022-11-15T01:22:11;95131.97;;;5.01;86.13
56052;BME280;41919;42.648;23.384;2022-11-15T01:24:37;95127.81;;;5.08;85.92
56052;BME280;41919;42.648;23.384;2022-11-15T01:27:02;95121.91;;;4.98;86.57
56052;BME280;41919;42.648;23.384;2022-11-15T01:29:28;95119.06;;;5.09;86.29
56052;BME280;41919;42.648;23.384;2022-11-15T01:31:53;95125.75;;;5.20;85.67
56052;BME280;41919;42.648;23.384;2022-11-15T01:34:43;95124.31;;;5.26;85.60
56052;BME280;41919;42.648;23.384;2022-11-15T01:37:33;95132.59;;;5.29;85.63
56052;BME280;41919;42.648;23.384;2022-11-15T01:40:23;95134.84;;;5.33;85.68
56052;BME280;41919;42.648;23.384;2022-11-15T01:42:49;95136.78;;;5.30;85.28
56052;BME280;41919;42.648;23.384;2022-11-15T01:45:15;95130.16;;;5.36;84.92
56052;BME280;41919;42.648;23.384;2022-11-15T01:47:41;95131.09;;;5.27;85.67
56052;BME280;41919;42.648;23.384;2022-11-15T01:50:10;95128.84;;;5.24;86.74
56052;BME280;41919;42.648;23.384;2022-11-15T01:52:37;95125.13;;;5.26;87.12
56052;BME280;41919;42.648;23.384;2022-11-15T01:57:28;95120.97;;;4.99;84.81
56052;BME280;41919;42.648;23.384;2022-11-15T01:59:53;95115.81;;;4.73;85.44
56052;BME280;41919;42.648;23.384;2022-11-15T02:02:19;95115.72;;;4.57;86.05
56052;BME280;41919;42.648;23.384;2022-11-15T02:04:47;95120.81;;;4.66;85.86
56052;BME280;41919;42.648;23.384;2022-11-15T02:07:14;95120.16;;;4.64;86.41
56052;BME280;41919;42.648;23.384;2022-11-15T02:09:40;95124.50;;;4.64;86.57
56052;BME280;41919;42.648;23.384;2022-11-15T02:12:06;95121.91;;;4.64;86.91
56052;BME280;41919;42.648;23.384;2022-11-15T02:14:33;95126.66;;;4.77;86.06
56052;BME280;41919;42.648;23.384;2022-11-15T02:17:19;95122.66;;;4.82;85.32
56052;BME280;41919;42.648;23.384;2022-11-15T02:20:11;95120.75;;;4.93;85.03
56052;BME280;41919;42.648;23.384;2022-11-15T02:22:46;95113.16;;;4.91;84.53
56052;BME280;41919;42.648;23.384;2022-11-15T02:25:30;95115.31;;;5.04;83.77
56052;BME280;41919;42.648;23.384;2022-11-15T02:33:24;95118.75;;;4.52;82.96
56052;BME280;41919;42.648;23.384;2022-11-15T02:41:02;95112.19;;;4.13;84.89
56052;BME280;41919;42.648;23.384;2022-11-15T02:43:33;95106.25;;;4.21;85.12
56052;BME280;41919;42.648;23.384;2022-11-15T02:49:12;95111.16;;;4.24;85.63
56052;BME280;41919;42.648;23.384;2022-11-15T02:51:38;95118.19;;;4.40;84.66
56052;BME280;41919;42.648;23.384;2022-11-15T02:54:04;95109.25;;;4.53;83.64
56052;BME280;41919;42.648;23.384;2022-11-15T02:56:30;95116.78;;;4.46;83.35
56052;BME280;41919;42.648;23.384;2022-11-15T03:02:02;95119.34;;;4.20;83.68
56052;BME280;41919;42.648;23.384;2022-11-15T03:04:35;95114.81;;;3.96;86.39
56052;BME280;41919;42.648;23.384;2022-11-15T03:07:11;95115.03;;;3.66;86.93
56052;BME280;41919;42.648;23.384;2022-11-15T03:09:41;95114.06;;;3.49;88.70
56052;BME280;41919;42.648;23.384;2022-11-15T03:12:14;95109.28;;;3.09;89.55
56052;BME280;41919;42.648;23.384;2022-11-15T03:17:20;95116.59;;;2.76;92.09
56052;BME280;41919;42.648;23.384;2022-11-15T03:19:48;95118.25;;;2.67;94.54
56052;BME280;41919;42.648;23.384;2022-11-15T03:22:17;95109.28;;;2.71;94.74
56052;BME280;41919;42.648;23.384;2022-11-15T03:24:44;95116.34;;;2.69;95.73
56052;BME280;41919;42.648;23.384;2022-11-15T03:27:12;95105.22;;;2.69;96.85
56052;BME280;41919;42.648;23.384;2022-11-15T03:29:43;95108.13;;;2.84;95.46
56052;BME280;41919;42.648;23.384;2022-11-15T03:32:20;95104.44;;;2.96;94.43
56052;BME280;41919;42.648;23.384;2022-11-15T03:34:58;95102.38;;;3.00;92.68
56052;BME280;41919;42.648;23.384;2022-11-15T03:40:11;95096.47;;;2.80;94.71
56052;BME280;41919;42.648;23.384;2022-11-15T03:42:38;95094.06;;;2.68;93.00
56052;BME280;41919;42.648;23.384;2022-11-15T17:32:31;94589.94;;;6.16;90.89
56052;BME280;41919;42.648;23.384;2022-11-15T17:34:56;94579.63;;;6.23;91.25
56052;BME280;41919;42.648;23.384;2022-11-15T17:37:22;94527.09;;;6.06;90.69
56052;BME280;41919;42.648;23.384;2022-11-15T17:39:47;94571.88;;;6.38;90.53
56052;BME280;41919;42.648;23.384;2022-11-15T17:42:12;94562.50;;;6.37;90.45
56052;BME280;41919;42.648;23.384;2022-11-15T17:44:38;94561.16;;;6.41;90.54
56052;BME280;41919;42.648;23.384;2022-11-15T17:47:03;94568.50;;;6.52;89.66
56052;BME280;41919;42.648;23.384;2022-11-15T17:49:28;94570.03;;;6.61;89.32
56052;BME280;41919;42.648;23.384;2022-11-15T17:51:54;94563.94;;;6.69;88.78
56052;BME280;41919;42.648;23.384;2022-11-15T17:54:19;94566.97;;;6.73;87.98
56052;BME280;41919;42.648;23.384;2022-11-15T17:56:44;94562.69;;;6.80;87.61
56052;BME280;41919;42.648;23.384;2022-11-15T17:59:09;94563.94;;;6.84;87.13
56052;BME280;41919;42.648;23.384;2022-11-15T18:01:36;94547.91;;;6.80;86.74
56052;BME280;41919;42.648;23.384;2022-11-15T18:04:03;94569.31;;;6.97;86.17
56052;BME280;41919;42.648;23.384;2022-11-15T18:06:30;94562.56;;;7.03;85.80
56052;BME280;41919;42.648;23.384;2022-11-15T18:08:56;94559.25;;;7.09;85.36
56052;BME280;41919;42.648;23.384;2022-11-15T18:11:25;94558.91;;;7.12;84.36
56052;BME280;41919;42.648;23.384;2022-11-15T18:13:53;94562.50;;;6.96;84.72
56052;BME280;41919;42.648;23.384;2022-11-15T18:16:19;94562.41;;;7.04;84.74
56052;BME280;41919;42.648;23.384;2022-11-15T18:18:45;94552.28;;;7.10;84.21
56052;BME280;41919;42.648;23.384;2022-11-15T18:23:35;94553.13;;;7.17;84.27
56052;BME280;41919;42.648;23.384;2022-11-15T18:26:01;94545.59;;;7.22;84.44
56052;BME280;41919;42.648;23.384;2022-11-15T18:28:31;94540.06;;;7.25;84.31
56052;BME280;41919;42.648;23.384;2022-11-15T18:30:57;94546.84;;;7.26;84.24
56052;BME280;41919;42.648;23.384;2022-11-15T20:29:14;94534.09;;;6.20;91.27
56052;BME280;41919;42.648;23.384;2022-11-15T20:31:40;94527.94;;;6.21;90.75
56052;BME280;41919;42.648;23.384;2022-11-15T20:34:05;94525.06;;;6.16;90.93
56052;BME280;41919;42.648;23.384;2022-11-15T20:36:30;94526.84;;;6.16;90.81
56052;BME280;41919;42.648;23.384;2022-11-15T20:38:59;94523.38;;;6.23;89.99
56052;BME280;41919;42.648;23.384;2022-11-15T20:41:24;94526.41;;;6.27;89.47
56052;BME280;41919;42.648;23.384;2022-11-15T20:43:50;94523.63;;;6.28;89.31
56052;BME280;41919;42.648;23.384;2022-11-15T20:46:15;94515.94;;;6.35;88.68
56052;BME280;41919;42.648;23.384;2022-11-15T20:48:41;94514.78;;;6.38;88.28
56052;BME280;41919;42.648;23.384;2022-11-15T20:51:14;94517.03;;;6.41;87.85
56052;BME280;41919;42.648;23.384;2022-11-15T20:53:40;94523.81;;;6.42;87.42
56052;BME280;41919;42.648;23.384;2022-11-15T20:56:07;94512.28;;;6.44;86.82
56052;BME280;41919;42.648;23.384;2022-11-15T20:58:34;94502.69;;;6.45;86.37
56052;BME280;41919;42.648;23.384;2022-11-15T21:01:00;94501.06;;;6.44;86.12
56052;BME280;41919;42.648;23.384;2022-11-15T21:03:25;94494.44;;;6.26;86.22
56052;BME280;41919;42.648;23.384;2022-11-15T21:05:51;94503.25;;;6.25;86.54
56052;BME280;41919;42.648;23.384;2022-11-15T21:08:16;94496.31;;;6.33;86.34
56052;BME280;41919;42.648;23.384;2022-11-15T21:10:42;94497.41;;;6.38;85.99
56052;BME280;41919;42.648;23.384;2022-11-15T21:13:25;94499.31;;;6.30;86.04
56052;BME280;41919;42.648;23.384;2022-11-15T21:15:53;94453.47;;;5.69;88.16
56052;BME280;41919;42.648;23.384;2022-11-15T21:18:19;94494.59;;;5.95;87.74
56052;BME280;41919;42.648;23.384;2022-11-15T21:20:44;94491.19;;;5.95;87.15
56052;BME280;41919;42.648;23.384;2022-11-15T21:23:09;94483.47;;;5.86;86.97
56052;BME280;41919;42.648;23.384;2022-11-15T21:25:35;94486.63;;;5.59;88.32
56052;BME280;41919;42.648;23.384;2022-11-15T21:28:01;94488.69;;;5.40;89.73
56052;BME280;41919;42.648;23.384;2022-11-15T21:30:26;94476.13;;;5.29;90.01
56052;BME280;41919;42.648;23.384;2022-11-15T21:32:52;94481.22;;;5.22;90.90
56052;BME280;41919;42.648;23.384;2022-11-15T21:35:17;94473.25;;;5.01;93.15
56052;BME280;41919;42.648;23.384;2022-11-15T21:37:42;94466.72;;;4.82;95.95
56052;BME280;41919;42.648;23.384;2022-11-15T21:40:08;94455.91;;;4.78;97.75
56052;BME280;41919;42.648;23.384;2022-11-15T21:42:33;94459.56;;;4.61;99.40
56052;BME280;41919;42.648;23.384;2022-11-15T21:44:58;94452.25;;;4.64;100.00
56052;BME280;41919;42.648;23.384;2022-11-15T21:47:24;94448.34;;;4.68;100.00
56052;BME280;41919;42.648;23.384;2022-11-15T21:49:49;94453.81;;;4.74;100.00
